sensor_id;sensor_type;location;lat;lon;timestamp;temperature;humidity
54684;DHT22;40582;53.100;6.686;2022-12-07T00:01:10;3.20;99.90
54684;DHT22;40582;53.100;6.686;2022-12-07T00:03:37;3.20;99.90
54684;DHT22;40582;53.100;6.686;2022-12-07T00:06:04;2.50;99.90
54684;DHT22;40582;53.100;6.686;2022-12-07T00:08:30;3.20;99.90
54684;DHT22;40582;53.100;6.686;2022-12-07T00:11:01;4.00;99.90
54684;DHT22;40582;53.100;6.686;2022-12-07T00:13:27;3.50;99.90
54684;DHT22;40582;53.100;6.686;2022-12-07T00:15:53;3.30;99.90
54684;DHT22;40582;53.100;6.686;2022-12-07T00:18:18;3.40;99.90
54684;DHT22;40582;53.100;6.686;2022-12-07T00:20:44;3.40;99.90
54684;DHT22;40582;53.100;6.686;2022-12-07T00:23:10;3.60;99.90
54684;DHT22;40582;53.100;6.686;2022-12-07T00:25:35;3.40;99.90
54684;DHT22;40582;53.100;6.686;2022-12-07T00:28:01;3.70;99.90
54684;DHT22;40582;53.100;6.686;2022-12-07T00:30:27;3.60;99.90
54684;DHT22;40582;53.100;6.686;2022-12-07T00:32:52;3.50;99.90
54684;DHT22;40582;53.100;6.686;2022-12-07T00:35:18;3.20;99.90
54684;DHT22;40582;53.100;6.686;2022-12-07T00:37:43;3.20;99.90
54684;DHT22;40582;53.100;6.686;2022-12-07T00:40:09;3.20;99.90
54684;DHT22;40582;53.100;6.686;2022-12-07T00:42:35;3.20;99.90
54684;DHT22;40582;53.100;6.686;2022-12-07T00:45:01;3.40;99.90
54684;DHT22;40582;53.100;6.686;2022-12-07T00:47:26;3.30;99.90
54684;DHT22;40582;53.100;6.686;2022-12-07T00:49:52;3.70;99.90
54684;DHT22;40582;53.100;6.686;2022-12-07T00:52:18;3.70;99.90
54684;DHT22;40582;53.100;6.686;2022-12-07T00:54:43;3.30;99.90
54684;DHT22;40582;53.100;6.686;2022-12-07T00:57:09;3.60;99.90
54684;DHT22;40582;53.100;6.686;2022-12-07T00:59:35;3.40;99.90
54684;DHT22;40582;53.100;6.686;2022-12-07T01:02:00;3.40;99.90
54684;DHT22;40582;53.100;6.686;2022-12-07T01:04:26;3.40;99.90
54684;DHT22;40582;53.100;6.686;2022-12-07T01:06:52;3.40;99.90
54684;DHT22;40582;53.100;6.686;2022-12-07T01:09:17;3.40;99.90
54684;DHT22;40582;53.100;6.686;2022-12-07T01:11:43;3.60;99.90
54684;DHT22;40582;53.100;6.686;2022-12-07T01:14:08;3.60;99.90
54684;DHT22;40582;53.100;6.686;2022-12-07T01:16:34;4.20;99.90
54684;DHT22;40582;53.100;6.686;2022-12-07T01:19:01;3.60;99.90
54684;DHT22;40582;53.100;6.686;2022-12-07T01:21:30;3.50;99.90
54684;DHT22;40582;53.100;6.686;2022-12-07T01:24:00;3.50;99.90
54684;DHT22;40582;53.100;6.686;2022-12-07T01:26:26;3.80;99.90
54684;DHT22;40582;53.100;6.686;2022-12-07T01:28:52;3.40;99.90
54684;DHT22;40582;53.100;6.686;2022-12-07T01:31:22;3.70;99.90
54684;DHT22;40582;53.100;6.686;2022-12-07T01:33:51;3.50;99.90
54684;DHT22;40582;53.100;6.686;2022-12-07T01:36:31;3.60;99.90
54684;DHT22;40582;53.100;6.686;2022-12-07T01:38:59;3.10;99.90
54684;DHT22;40582;53.100;6.686;2022-12-07T01:41:32;3.20;99.90
54684;DHT22;40582;53.100;6.686;2022-12-07T01:44:13;3.10;99.90
54684;DHT22;40582;53.100;6.686;2022-12-07T01:46:40;2.90;99.90
54684;DHT22;40582;53.100;6.686;2022-12-07T01:49:10;3.00;99.90
54684;DHT22;40582;53.100;6.686;2022-12-07T01:51:38;4.00;99.90
54684;DHT22;40582;53.100;6.686;2022-12-07T01:54:06;3.70;99.90
54684;DHT22;40582;53.100;6.686;2022-12-07T01:56:33;3.40;99.90
54684;DHT22;40582;53.100;6.686;2022-12-07T01:59:00;3.50;99.90
54684;DHT22;40582;53.100;6.686;2022-12-07T02:01:26;3.60;99.90
54684;DHT22;40582;53.100;6.686;2022-12-07T02:03:52;3.60;99.90
54684;DHT22;40582;53.100;6.686;2022-12-07T02:06:22;3.70;99.90
54684;DHT22;40582;53.100;6.686;2022-12-07T02:08:49;3.70;99.90
54684;DHT22;40582;53.100;6.686;2022-12-07T02:11:15;3.60;99.90
54684;DHT22;40582;53.100;6.686;2022-12-07T02:13:43;3.50;99.90
54684;DHT22;40582;53.100;6.686;2022-12-07T02:16:28;3.50;99.90
54684;DHT22;40582;53.100;6.686;2022-12-07T02:22:00;3.30;99.90
54684;DHT22;40582;53.100;6.686;2022-12-07T02:30:08;3.10;99.90
54684;DHT22;40582;53.100;6.686;2022-12-07T02:32:42;3.10;99.90
54684;DHT22;40582;53.100;6.686;2022-12-07T02:35:15;3.00;99.90
54684;DHT22;40582;53.100;6.686;2022-12-07T02:40:31;3.90;99.90
54684;DHT22;40582;53.100;6.686;2022-12-07T02:43:07;3.10;99.90
54684;DHT22;40582;53.100;6.686;2022-12-07T02:45:36;3.00;99.90
54684;DHT22;40582;53.100;6.686;2022-12-07T02:48:04;3.00;99.90
54684;DHT22;40582;53.100;6.686;2022-12-07T02:50:31;3.10;99.90
54684;DHT22;40582;53.100;6.686;2022-12-07T02:52:57;3.10;99.90
54684;DHT22;40582;53.100;6.686;2022-12-07T02:55:30;4.00;99.90
54684;DHT22;40582;53.100;6.686;2022-12-07T02:58:06;3.10;99.90
54684;DHT22;40582;53.100;6.686;2022-12-07T03:00:59;3.50;99.90
54684;DHT22;40582;53.100;6.686;2022-12-07T03:03:29;3.20;99.90
54684;DHT22;40582;53.100;6.686;2022-12-07T03:06:16;3.40;99.90
54684;DHT22;40582;53.100;6.686;2022-12-07T03:08:57;3.20;99.90
54684;DHT22;40582;53.100;6.686;2022-12-07T03:11:34;3.20;99.90
54684;DHT22;40582;53.100;6.686;2022-12-07T03:14:25;3.30;99.90
54684;DHT22;40582;53.100;6.686;2022-12-07T03:17:12;3.30;99.90
54684;DHT22;40582;53.100;6.686;2022-12-07T03:19:40;3.50;99.90
54684;DHT22;40582;53.100;6.686;2022-12-07T03:22:09;3.50;99.90
54684;DHT22;40582;53.100;6.686;2022-12-07T03:24:40;3.20;99.90
54684;DHT22;40582;53.100;6.686;2022-12-07T03:27:30;3.10;99.90
54684;DHT22;40582;53.100;6.686;2022-12-07T03:32:46;3.00;99.90
54684;DHT22;40582;53.100;6.686;2022-12-07T03:35:25;3.00;99.90
54684;DHT22;40582;53.100;6.686;2022-12-07T03:38:17;3.10;99.90
54684;DHT22;40582;53.100;6.686;2022-12-07T03:40:48;3.10;99.90
54684;DHT22;40582;53.100;6.686;2022-12-07T03:43:16;3.20;99.90
54684;DHT22;40582;53.100;6.686;2022-12-07T03:45:44;3.30;99.90
54684;DHT22;40582;53.100;6.686;2022-12-07T03:48:22;3.60;99.90
54684;DHT22;40582;53.100;6.686;2022-12-07T03:50:55;3.40;99.90
54684;DHT22;40582;53.100;6.686;2022-12-07T03:53:32;3.40;99.90
54684;DHT22;40582;53.100;6.686;2022-12-07T03:56:01;3.50;99.90
54684;DHT22;40582;53.100;6.686;2022-12-07T03:58:28;3.40;99.90
54684;DHT22;40582;53.100;6.686;2022-12-07T04:00:55;3.40;99.90
54684;DHT22;40582;53.100;6.686;2022-12-07T04:03:21;3.40;99.90
54684;DHT22;40582;53.100;6.686;2022-12-07T04:05:47;3.40;99.90
54684;DHT22;40582;53.100;6.686;2022-12-07T04:08:12;3.30;99.90
54684;DHT22;40582;53.100;6.686;2022-12-07T04:10:38;3.50;99.90
54684;DHT22;40582;53.100;6.686;2022-12-07T04:13:04;3.30;99.90
54684;DHT22;40582;53.100;6.686;2022-12-07T04:15:29;3.30;99.90
54684;DHT22;40582;53.100;6.686;2022-12-07T04:17:55;3.20;99.90
54684;DHT22;40582;53.100;6.686;2022-12-07T04:20:21;3.80;99.90
54684;DHT22;40582;53.100;6.686;2022-12-07T04:22:47;3.00;99.90
54684;DHT22;40582;53.100;6.686;2022-12-07T04:25:12;3.00;99.90
54684;DHT22;40582;53.100;6.686;2022-12-07T04:27:38;3.00;99.90
54684;DHT22;40582;53.100;6.686;2022-12-07T04:30:04;2.90;99.90
54684;DHT22;40582;53.100;6.686;2022-12-07T04:32:30;2.90;99.90
54684;DHT22;40582;53.100;6.686;2022-12-07T04:34:56;2.90;99.90
54684;DHT22;40582;53.100;6.686;2022-12-07T04:37:22;2.90;99.90
54684;DHT22;40582;53.100;6.686;2022-12-07T04:39:48;2.80;99.90
54684;DHT22;40582;53.100;6.686;2022-12-07T04:42:14;3.10;99.90
54684;DHT22;40582;53.100;6.686;2022-12-07T04:44:39;2.80;99.90
54684;DHT22;40582;53.100;6.686;2022-12-07T04:47:05;3.60;99.90
54684;DHT22;40582;53.100;6.686;2022-12-07T04:49:30;2.90;99.90
54684;DHT22;40582;53.100;6.686;2022-12-07T04:51:56;2.90;99.90
54684;DHT22;40582;53.100;6.686;2022-12-07T04:54:22;2.80;99.90
54684;DHT22;40582;53.100;6.686;2022-12-07T04:56:48;3.50;99.90
54684;DHT22;40582;53.100;6.686;2022-12-07T04:59:15;2.90;99.90
54684;DHT22;40582;53.100;6.686;2022-12-07T05:01:41;2.90;99.90
54684;DHT22;40582;53.100;6.686;2022-12-07T05:04:06;3.00;99.90
54684;DHT22;40582;53.100;6.686;2022-12-07T05:06:32;3.00;99.90
54684;DHT22;40582;53.100;6.686;2022-12-07T05:08:58;3.20;99.90
54684;DHT22;40582;53.100;6.686;2022-12-07T05:11:23;2.90;99.90
54684;DHT22;40582;53.100;6.686;2022-12-07T05:14:07;2.70;99.90
54684;DHT22;40582;53.100;6.686;2022-12-07T05:16:34;2.60;99.90
54684;DHT22;40582;53.100;6.686;2022-12-07T05:18:59;2.50;99.90
54684;DHT22;40582;53.100;6.686;2022-12-07T05:21:25;2.40;99.90
54684;DHT22;40582;53.100;6.686;2022-12-07T05:23:51;2.30;99.90
54684;DHT22;40582;53.100;6.686;2022-12-07T05:26:17;2.30;99.90
54684;DHT22;40582;53.100;6.686;2022-12-07T05:28:43;2.90;99.90
54684;DHT22;40582;53.100;6.686;2022-12-07T05:31:09;2.60;99.90
54684;DHT22;40582;53.100;6.686;2022-12-07T05:33:35;2.10;99.90
54684;DHT22;40582;53.100;6.686;2022-12-07T05:36:01;2.20;99.90
54684;DHT22;40582;53.100;6.686;2022-12-07T05:38:31;2.10;99.90
54684;DHT22;40582;53.100;6.686;2022-12-07T05:41:01;2.10;99.90
54684;DHT22;40582;53.100;6.686;2022-12-07T05:43:27;2.30;99.90
54684;DHT22;40582;53.100;6.686;2022-12-07T05:45:53;2.50;99.90
54684;DHT22;40582;53.100;6.686;2022-12-07T05:48:19;2.10;99.90
54684;DHT22;40582;53.100;6.686;2022-12-07T05:50:47;2.10;99.90
54684;DHT22;40582;53.100;6.686;2022-12-07T05:53:14;2.10;99.90
54684;DHT22;40582;53.100;6.686;2022-12-07T05:55:39;2.50;99.90
54684;DHT22;40582;53.100;6.686;2022-12-07T05:58:05;2.00;99.90
54684;DHT22;40582;53.100;6.686;2022-12-07T06:00:49;2.30;99.90
54684;DHT22;40582;53.100;6.686;2022-12-07T06:03:15;2.10;99.90
54684;DHT22;40582;53.100;6.686;2022-12-07T06:05:41;2.90;99.90
54684;DHT22;40582;53.100;6.686;2022-12-07T06:08:07;2.00;99.90
54684;DHT22;40582;53.100;6.686;2022-12-07T06:10:32;2.80;99.90
54684;DHT22;40582;53.100;6.686;2022-12-07T06:12:58;2.20;99.90
54684;DHT22;40582;53.100;6.686;2022-12-07T06:15:24;2.30;99.90
54684;DHT22;40582;53.100;6.686;2022-12-07T06:17:50;2.10;99.90
54684;DHT22;40582;53.100;6.686;2022-12-07T06:20:15;2.80;99.90
54684;DHT22;40582;53.100;6.686;2022-12-07T06:22:41;2.10;99.90
54684;DHT22;40582;53.100;6.686;2022-12-07T06:25:07;2.50;99.90
54684;DHT22;40582;53.100;6.686;2022-12-07T06:27:33;2.10;99.90
54684;DHT22;40582;53.100;6.686;2022-12-07T06:29:59;2.50;99.90
54684;DHT22;40582;53.100;6.686;2022-12-07T06:32:25;2.50;99.90
54684;DHT22;40582;53.100;6.686;2022-12-07T06:34:50;2.20;99.90
54684;DHT22;40582;53.100;6.686;2022-12-07T06:37:16;2.50;99.90
54684;DHT22;40582;53.100;6.686;2022-12-07T06:39:42;3.30;99.90
54684;DHT22;40582;53.100;6.686;2022-12-07T06:42:08;2.40;99.90
54684;DHT22;40582;53.100;6.686;2022-12-07T06:44:34;2.40;99.90
54684;DHT22;40582;53.100;6.686;2022-12-07T06:46:59;2.30;99.90
54684;DHT22;40582;53.100;6.686;2022-12-07T06:49:25;2.30;99.90
54684;DHT22;40582;53.100;6.686;2022-12-07T06:51:51;2.60;99.90
54684;DHT22;40582;53.100;6.686;2022-12-07T06:54:17;2.80;99.90
54684;DHT22;40582;53.100;6.686;2022-12-07T06:56:43;2.20;99.90
54684;DHT22;40582;53.100;6.686;2022-12-07T06:59:08;2.20;99.90
54684;DHT22;40582;53.100;6.686;2022-12-07T07:01:35;2.60;99.90
54684;DHT22;40582;53.100;6.686;2022-12-07T07:04:01;2.10;99.90
54684;DHT22;40582;53.100;6.686;2022-12-07T07:06:27;2.00;99.90
54684;DHT22;40582;53.100;6.686;2022-12-07T07:08:53;2.00;99.90
54684;DHT22;40582;53.100;6.686;2022-12-07T07:11:18;2.00;99.90
54684;DHT22;40582;53.100;6.686;2022-12-07T07:13:45;2.20;99.90
54684;DHT22;40582;53.100;6.686;2022-12-07T07:16:12;1.90;99.90
54684;DHT22;40582;53.100;6.686;2022-12-07T07:18:37;1.90;99.90
54684;DHT22;40582;53.100;6.686;2022-12-07T07:21:04;3.10;99.90
54684;DHT22;40582;53.100;6.686;2022-12-07T07:23:29;2.20;99.90
54684;DHT22;40582;53.100;6.686;2022-12-07T07:25:55;2.30;99.90
54684;DHT22;40582;53.100;6.686;2022-12-07T07:28:22;2.60;99.90
54684;DHT22;40582;53.100;6.686;2022-12-07T07:30:48;2.90;99.90
54684;DHT22;40582;53.100;6.686;2022-12-07T07:33:13;2.50;99.90
54684;DHT22;40582;53.100;6.686;2022-12-07T07:35:39;2.60;99.90
54684;DHT22;40582;53.100;6.686;2022-12-07T07:38:05;2.70;99.90
54684;DHT22;40582;53.100;6.686;2022-12-07T07:40:31;2.70;99.90
54684;DHT22;40582;53.100;6.686;2022-12-07T07:42:57;2.70;99.90
54684;DHT22;40582;53.100;6.686;2022-12-07T07:45:24;2.70;99.90
54684;DHT22;40582;53.100;6.686;2022-12-07T07:47:50;3.30;99.90
54684;DHT22;40582;53.100;6.686;2022-12-07T07:50:16;2.70;99.90
54684;DHT22;40582;53.100;6.686;2022-12-07T07:52:42;2.80;99.90
54684;DHT22;40582;53.100;6.686;2022-12-07T07:55:08;3.10;99.90
54684;DHT22;40582;53.100;6.686;2022-12-07T07:57:35;3.00;99.90
54684;DHT22;40582;53.100;6.686;2022-12-07T08:00:05;2.90;99.90
54684;DHT22;40582;53.100;6.686;2022-12-07T08:02:31;2.80;99.90
54684;DHT22;40582;53.100;6.686;2022-12-07T08:04:57;2.70;99.90
54684;DHT22;40582;53.100;6.686;2022-12-07T08:07:22;2.80;99.90
54684;DHT22;40582;53.100;6.686;2022-12-07T08:09:48;2.60;99.90
54684;DHT22;40582;53.100;6.686;2022-12-07T08:12:14;2.60;99.90
54684;DHT22;40582;53.100;6.686;2022-12-07T08:14:39;3.00;99.90
54684;DHT22;40582;53.100;6.686;2022-12-07T08:17:05;2.50;99.90
54684;DHT22;40582;53.100;6.686;2022-12-07T08:19:31;2.60;99.90
54684;DHT22;40582;53.100;6.686;2022-12-07T08:21:56;2.40;99.90
54684;DHT22;40582;53.100;6.686;2022-12-07T08:24:23;2.40;99.90
54684;DHT22;40582;53.100;6.686;2022-12-07T08:26:50;2.40;99.90
54684;DHT22;40582;53.100;6.686;2022-12-07T08:29:16;2.40;99.90
54684;DHT22;40582;53.100;6.686;2022-12-07T08:31:42;2.40;99.90
54684;DHT22;40582;53.100;6.686;2022-12-07T08:34:09;2.40;99.90
54684;DHT22;40582;53.100;6.686;2022-12-07T08:36:36;2.40;99.90
54684;DHT22;40582;53.100;6.686;2022-12-07T08:39:02;2.40;99.90
54684;DHT22;40582;53.100;6.686;2022-12-07T08:41:28;2.50;99.90
54684;DHT22;40582;53.100;6.686;2022-12-07T08:43:53;2.40;99.90
54684;DHT22;40582;53.100;6.686;2022-12-07T08:46:23;2.50;99.90
54684;DHT22;40582;53.100;6.686;2022-12-07T08:49:03;2.50;99.90
54684;DHT22;40582;53.100;6.686;2022-12-07T08:51:29;2.50;99.90
54684;DHT22;40582;53.100;6.686;2022-12-07T08:53:56;2.70;99.90
54684;DHT22;40582;53.100;6.686;2022-12-07T08:56:24;2.50;99.90
54684;DHT22;40582;53.100;6.686;2022-12-07T08:58:50;2.60;99.90
54684;DHT22;40582;53.100;6.686;2022-12-07T09:01:17;2.70;99.90
54684;DHT22;40582;53.100;6.686;2022-12-07T09:03:42;2.70;99.90
54684;DHT22;40582;53.100;6.686;2022-12-07T09:06:08;2.70;99.90
54684;DHT22;40582;53.100;6.686;2022-12-07T09:08:37;3.20;99.90
54684;DHT22;40582;53.100;6.686;2022-12-07T09:11:04;2.70;99.90
54684;DHT22;40582;53.100;6.686;2022-12-07T09:13:30;2.70;99.90
54684;DHT22;40582;53.100;6.686;2022-12-07T09:15:56;2.70;99.90
54684;DHT22;40582;53.100;6.686;2022-12-07T09:18:23;2.80;99.90
54684;DHT22;40582;53.100;6.686;2022-12-07T09:20:50;3.00;99.90
54684;DHT22;40582;53.100;6.686;2022-12-07T09:23:16;3.10;99.90
54684;DHT22;40582;53.100;6.686;2022-12-07T09:25:42;3.20;99.90
54684;DHT22;40582;53.100;6.686;2022-12-07T09:28:08;3.30;99.90
54684;DHT22;40582;53.100;6.686;2022-12-07T09:30:34;3.40;99.90
54684;DHT22;40582;53.100;6.686;2022-12-07T09:33:00;3.50;99.90
54684;DHT22;40582;53.100;6.686;2022-12-07T09:35:25;3.90;99.90
54684;DHT22;40582;53.100;6.686;2022-12-07T09:37:51;3.70;99.90
54684;DHT22;40582;53.100;6.686;2022-12-07T09:40:19;3.80;99.90
54684;DHT22;40582;53.100;6.686;2022-12-07T09:42:48;4.00;99.90
54684;DHT22;40582;53.100;6.686;2022-12-07T09:45:38;4.00;99.90
54684;DHT22;40582;53.100;6.686;2022-12-07T09:48:04;4.10;99.90
54684;DHT22;40582;53.100;6.686;2022-12-07T09:50:30;4.20;99.90
54684;DHT22;40582;53.100;6.686;2022-12-07T09:53:10;4.40;99.90
54684;DHT22;40582;53.100;6.686;2022-12-07T09:55:38;4.30;99.90
54684;DHT22;40582;53.100;6.686;2022-12-07T09:58:06;4.30;99.90
54684;DHT22;40582;53.100;6.686;2022-12-07T10:00:32;4.30;99.90
54684;DHT22;40582;53.100;6.686;2022-12-07T10:03:01;4.60;99.90
54684;DHT22;40582;53.100;6.686;2022-12-07T10:05:35;4.50;99.90
54684;DHT22;40582;53.100;6.686;2022-12-07T10:08:03;4.30;99.90
54684;DHT22;40582;53.100;6.686;2022-12-07T10:10:33;4.30;99.90
54684;DHT22;40582;53.100;6.686;2022-12-07T10:13:06;4.30;99.90
54684;DHT22;40582;53.100;6.686;2022-12-07T10:15:45;4.70;99.90
54684;DHT22;40582;53.100;6.686;2022-12-07T10:18:33;4.50;99.90
54684;DHT22;40582;53.100;6.686;2022-12-07T10:23:58;4.50;99.90
54684;DHT22;40582;53.100;6.686;2022-12-07T10:26:32;4.50;99.90
54684;DHT22;40582;53.100;6.686;2022-12-07T10:29:22;4.40;99.90
54684;DHT22;40582;53.100;6.686;2022-12-07T10:32:03;4.40;99.90
54684;DHT22;40582;53.100;6.686;2022-12-07T10:34:31;4.40;99.90
54684;DHT22;40582;53.100;6.686;2022-12-07T10:39:51;4.40;99.90
54684;DHT22;40582;53.100;6.686;2022-12-07T10:42:25;4.50;99.90
54684;DHT22;40582;53.100;6.686;2022-12-07T10:53:24;5.00;99.90
54684;DHT22;40582;53.100;6.686;2022-12-07T10:56:06;5.20;99.90
54684;DHT22;40582;53.100;6.686;2022-12-07T11:01:42;5.50;99.90
54684;DHT22;40582;53.100;6.686;2022-12-07T11:07:33;5.60;99.90
54684;DHT22;40582;53.100;6.686;2022-12-07T11:10:12;5.60;99.90
54684;DHT22;40582;53.100;6.686;2022-12-07T11:15:24;5.60;99.90
54684;DHT22;40582;53.100;6.686;2022-12-07T11:36:51;5.00;99.90
54684;DHT22;40582;53.100;6.686;2022-12-07T11:39:36;4.90;99.90
54684;DHT22;40582;53.100;6.686;2022-12-07T11:42:09;4.70;99.90
54684;DHT22;40582;53.100;6.686;2022-12-07T11:44:50;4.70;99.90
54684;DHT22;40582;53.100;6.686;2022-12-07T11:53:18;4.90;99.90
54684;DHT22;40582;53.100;6.686;2022-12-07T11:55:52;4.90;99.90
54684;DHT22;40582;53.100;6.686;2022-12-07T12:03:47;5.20;99.90
54684;DHT22;40582;53.100;6.686;2022-12-07T12:06:13;5.30;99.90
54684;DHT22;40582;53.100;6.686;2022-12-07T12:08:50;5.30;99.90
54684;DHT22;40582;53.100;6.686;2022-12-07T12:11:45;5.60;99.90
54684;DHT22;40582;53.100;6.686;2022-12-07T12:17:08;5.50;99.90
54684;DHT22;40582;53.100;6.686;2022-12-07T12:22:37;5.50;99.90
54684;DHT22;40582;53.100;6.686;2022-12-07T12:27:49;5.30;99.90
54684;DHT22;40582;53.100;6.686;2022-12-07T12:30:31;5.10;99.90
54684;DHT22;40582;53.100;6.686;2022-12-07T12:33:03;5.00;99.90
54684;DHT22;40582;53.100;6.686;2022-12-07T12:35:36;4.90;99.90
54684;DHT22;40582;53.100;6.686;2022-12-07T12:38:27;4.80;99.90
54684;DHT22;40582;53.100;6.686;2022-12-07T12:40:55;4.70;99.90
54684;DHT22;40582;53.100;6.686;2022-12-07T12:43:41;5.00;99.90
54684;DHT22;40582;53.100;6.686;2022-12-07T12:49:14;4.60;99.90
54684;DHT22;40582;53.100;6.686;2022-12-07T12:51:42;4.60;99.90
54684;DHT22;40582;53.100;6.686;2022-12-07T12:56:43;4.60;99.90
54684;DHT22;40582;53.100;6.686;2022-12-07T13:01:47;4.70;99.90
54684;DHT22;40582;53.100;6.686;2022-12-07T13:05:00;5.20;99.90
54684;DHT22;40582;53.100;6.686;2022-12-07T13:07:11;4.80;99.90
54684;DHT22;40582;53.100;6.686;2022-12-07T13:09:42;4.80;99.90
54684;DHT22;40582;53.100;6.686;2022-12-07T13:12:14;4.80;99.90
54684;DHT22;40582;53.100;6.686;2022-12-07T13:14:54;5.20;99.90
54684;DHT22;40582;53.100;6.686;2022-12-07T13:20:02;5.00;99.90
54684;DHT22;40582;53.100;6.686;2022-12-07T13:24:58;5.00;99.90
54684;DHT22;40582;53.100;6.686;2022-12-07T13:27:25;5.10;99.90
54684;DHT22;40582;53.100;6.686;2022-12-07T13:29:52;4.90;99.90
54684;DHT22;40582;53.100;6.686;2022-12-07T13:32:25;5.00;99.90
54684;DHT22;40582;53.100;6.686;2022-12-07T13:34:51;4.60;99.90
54684;DHT22;40582;53.100;6.686;2022-12-07T13:44:51;4.20;99.90
54684;DHT22;40582;53.100;6.686;2022-12-07T13:47:43;4.10;99.90
54684;DHT22;40582;53.100;6.686;2022-12-07T13:50:31;4.10;99.90
54684;DHT22;40582;53.100;6.686;2022-12-07T13:52:59;4.00;99.90
54684;DHT22;40582;53.100;6.686;2022-12-07T13:55:26;4.40;99.90
54684;DHT22;40582;53.100;6.686;2022-12-07T13:57:54;4.20;99.90
54684;DHT22;40582;53.100;6.686;2022-12-07T14:00:22;4.50;99.90
54684;DHT22;40582;53.100;6.686;2022-12-07T14:03:00;4.20;99.90
54684;DHT22;40582;53.100;6.686;2022-12-07T14:05:35;4.30;99.90
54684;DHT22;40582;53.100;6.686;2022-12-07T14:13:37;4.20;99.90
54684;DHT22;40582;53.100;6.686;2022-12-07T14:16:32;4.10;99.90
54684;DHT22;40582;53.100;6.686;2022-12-07T14:19:01;4.00;99.90
54684;DHT22;40582;53.100;6.686;2022-12-07T14:21:29;3.90;99.90
54684;DHT22;40582;53.100;6.686;2022-12-07T14:24:17;3.80;99.90
54684;DHT22;40582;53.100;6.686;2022-12-07T14:26:45;3.70;99.90
54684;DHT22;40582;53.100;6.686;2022-12-07T14:29:21;4.10;99.90
54684;DHT22;40582;53.100;6.686;2022-12-07T14:31:47;3.60;99.90
54684;DHT22;40582;53.100;6.686;2022-12-07T14:34:13;3.90;99.90
54684;DHT22;40582;53.100;6.686;2022-12-07T14:36:39;3.40;99.90
54684;DHT22;40582;53.100;6.686;2022-12-07T14:39:04;3.90;99.90
54684;DHT22;40582;53.100;6.686;2022-12-07T14:41:30;4.00;99.90
54684;DHT22;40582;53.100;6.686;2022-12-07T14:44:14;3.40;99.90
54684;DHT22;40582;53.100;6.686;2022-12-07T14:46:40;3.40;99.90
54684;DHT22;40582;53.100;6.686;2022-12-07T14:49:05;3.40;99.90
54684;DHT22;40582;53.100;6.686;2022-12-07T14:51:32;3.50;99.90
54684;DHT22;40582;53.100;6.686;2022-12-07T14:53:58;3.50;99.90
54684;DHT22;40582;53.100;6.686;2022-12-07T14:56:25;3.90;99.90
54684;DHT22;40582;53.100;6.686;2022-12-07T14:58:51;3.60;99.90
54684;DHT22;40582;53.100;6.686;2022-12-07T15:01:16;3.70;99.90
54684;DHT22;40582;53.100;6.686;2022-12-07T15:03:42;3.70;99.90
54684;DHT22;40582;53.100;6.686;2022-12-07T15:06:13;3.70;99.90
54684;DHT22;40582;53.100;6.686;2022-12-07T15:08:39;3.70;99.90
54684;DHT22;40582;53.100;6.686;2022-12-07T15:11:05;3.80;99.90
54684;DHT22;40582;53.100;6.686;2022-12-07T15:13:31;3.80;99.90
54684;DHT22;40582;53.100;6.686;2022-12-07T15:16:19;3.80;99.90
54684;DHT22;40582;53.100;6.686;2022-12-07T15:18:46;3.70;99.90
54684;DHT22;40582;53.100;6.686;2022-12-07T15:21:15;3.70;99.90
54684;DHT22;40582;53.100;6.686;2022-12-07T15:23:41;3.70;99.90
54684;DHT22;40582;53.100;6.686;2022-12-07T15:26:09;3.70;99.90
54684;DHT22;40582;53.100;6.686;2022-12-07T15:28:35;3.80;99.90
54684;DHT22;40582;53.100;6.686;2022-12-07T15:31:01;3.80;99.90
54684;DHT22;40582;53.100;6.686;2022-12-07T15:33:26;3.60;99.90
54684;DHT22;40582;53.100;6.686;2022-12-07T15:35:52;3.50;99.90
54684;DHT22;40582;53.100;6.686;2022-12-07T15:38:17;3.70;99.90
54684;DHT22;40582;53.100;6.686;2022-12-07T15:40:46;4.30;99.90
54684;DHT22;40582;53.100;6.686;2022-12-07T15:43:12;3.40;99.90
54684;DHT22;40582;53.100;6.686;2022-12-07T15:45:56;3.30;99.90
54684;DHT22;40582;53.100;6.686;2022-12-07T15:48:22;3.40;99.90
54684;DHT22;40582;53.100;6.686;2022-12-07T15:50:48;3.30;99.90
54684;DHT22;40582;53.100;6.686;2022-12-07T15:53:14;3.30;99.90
54684;DHT22;40582;53.100;6.686;2022-12-07T15:55:40;3.30;99.90
54684;DHT22;40582;53.100;6.686;2022-12-07T15:58:06;3.30;99.90
54684;DHT22;40582;53.100;6.686;2022-12-07T16:00:32;3.60;99.90
54684;DHT22;40582;53.100;6.686;2022-12-07T16:02:57;3.30;99.90
54684;DHT22;40582;53.100;6.686;2022-12-07T16:05:24;3.30;99.90
54684;DHT22;40582;53.100;6.686;2022-12-07T16:07:50;3.40;99.90
54684;DHT22;40582;53.100;6.686;2022-12-07T16:10:16;3.30;99.90
54684;DHT22;40582;53.100;6.686;2022-12-07T16:12:42;3.60;99.90
54684;DHT22;40582;53.100;6.686;2022-12-07T16:15:08;3.30;99.90
54684;DHT22;40582;53.100;6.686;2022-12-07T16:17:34;3.30;99.90
54684;DHT22;40582;53.100;6.686;2022-12-07T16:19:59;3.30;99.90
54684;DHT22;40582;53.100;6.686;2022-12-07T16:22:25;3.40;99.90
54684;DHT22;40582;53.100;6.686;2022-12-07T16:24:51;3.30;99.90
54684;DHT22;40582;53.100;6.686;2022-12-07T16:27:16;3.30;99.90
54684;DHT22;40582;53.100;6.686;2022-12-07T16:29:42;3.70;99.90
54684;DHT22;40582;53.100;6.686;2022-12-07T16:32:08;3.50;99.90
54684;DHT22;40582;53.100;6.686;2022-12-07T16:34:33;3.30;99.90
54684;DHT22;40582;53.100;6.686;2022-12-07T16:36:59;3.30;99.90
54684;DHT22;40582;53.100;6.686;2022-12-07T16:39:25;2.70;99.90
54684;DHT22;40582;53.100;6.686;2022-12-07T16:41:50;3.40;99.90
54684;DHT22;40582;53.100;6.686;2022-12-07T16:44:18;3.40;99.90
54684;DHT22;40582;53.100;6.686;2022-12-07T16:46:43;3.90;99.90
54684;DHT22;40582;53.100;6.686;2022-12-07T16:49:13;3.40;99.90
54684;DHT22;40582;53.100;6.686;2022-12-07T16:51:39;3.50;99.90
54684;DHT22;40582;53.100;6.686;2022-12-07T16:54:06;3.60;99.90
54684;DHT22;40582;53.100;6.686;2022-12-07T16:56:32;3.50;99.90
54684;DHT22;40582;53.100;6.686;2022-12-07T16:58:58;4.00;99.90
54684;DHT22;40582;53.100;6.686;2022-12-07T17:01:24;3.50;99.90
54684;DHT22;40582;53.100;6.686;2022-12-07T17:03:53;3.50;99.90
54684;DHT22;40582;53.100;6.686;2022-12-07T17:06:24;3.50;99.90
54684;DHT22;40582;53.100;6.686;2022-12-07T17:08:51;3.80;99.90
54684;DHT22;40582;53.100;6.686;2022-12-07T17:11:23;4.10;99.90
54684;DHT22;40582;53.100;6.686;2022-12-07T17:13:50;3.60;99.90
54684;DHT22;40582;53.100;6.686;2022-12-07T17:16:35;4.20;99.90
54684;DHT22;40582;53.100;6.686;2022-12-07T17:19:05;3.50;99.90
54684;DHT22;40582;53.100;6.686;2022-12-07T17:21:31;3.50;99.90
54684;DHT22;40582;53.100;6.686;2022-12-07T17:23:59;3.50;99.90
54684;DHT22;40582;53.100;6.686;2022-12-07T17:26:25;3.90;99.90
54684;DHT22;40582;53.100;6.686;2022-12-07T17:28:51;3.80;99.90
54684;DHT22;40582;53.100;6.686;2022-12-07T17:31:18;3.60;99.90
54684;DHT22;40582;53.100;6.686;2022-12-07T17:33:44;3.70;99.90
54684;DHT22;40582;53.100;6.686;2022-12-07T17:36:12;3.60;99.90
54684;DHT22;40582;53.100;6.686;2022-12-07T17:38:39;4.30;99.90